Time;durP1;ratioP1;P1;durP2;ratioP2;P2;SDS_P1;SDS_P2;PMS_P1;PMS_P2;Temp;Humidity;BMP_temperature;BMP_pressure;BME280_temperature;BME280_humidity;BME280_pressure;Samples;Min_cycle;Max_cycle;Signal;HPM_P1;HPM_P2
2022/05/06 00:01:49;;;;;;;;;;;15.10;82.60;;;;;;5058940;28;20600;-77
2022/05/06 00:04:15;;;;;;;;;;;15.00;82.50;;;;;;5050446;28;19939;-79
2022/05/06 00:06:42;;;;;;;;;;;15.00;82.60;;;;;;5055460;28;19928;-78
2022/05/06 00:09:09;;;;;;;;;;;15.00;82.60;;;;;;5053920;28;19929;-78
2022/05/06 00:11:36;;;;;;;;;;;15.00;82.70;;;;;;5054470;28;19928;-77
2022/05/06 00:14:04;;;;;;;;;;;15.00;82.70;;;;;;5055133;28;19928;-77
2022/05/06 00:16:30;;;;;;;;;;;15.00;82.70;;;;;;5052017;28;19928;-79
2022/05/06 00:18:57;;;;;;;;;;;14.90;82.70;;;;;;5055010;28;19952;-77
2022/05/06 00:21:23;;;;;;;;;;;15.00;82.90;;;;;;5051899;28;19932;-78
2022/05/06 00:23:50;;;;;;;;;;;14.90;82.80;;;;;;5055349;28;19930;-78
2022/05/06 00:26:16;;;;;;;;;;;15.00;82.90;;;;;;5053704;28;19928;-77
2022/05/06 00:28:43;;;;;;;;;;;14.90;82.90;;;;;;5050542;28;19932;-77
2022/05/06 00:31:12;;;;;;;;;;;14.90;82.90;;;;;;5053678;28;19932;-78
2022/05/06 00:33:38;;;;;;;;;;;14.90;83.00;;;;;;5053487;28;19935;-78
2022/05/06 00:36:05;;;;;;;;;;;14.90;83.10;;;;;;5050818;28;19936;-78
2022/05/06 00:38:32;;;;;;;;;;;14.90;83.10;;;;;;5047305;28;19932;-79
2022/05/06 00:40:59;;;;;;;;;;;14.90;83.10;;;;;;5055972;28;19932;-78
2022/05/06 00:43:25;;;;;;;;;;;14.80;83.10;;;;;;5052566;28;20597;-78
2022/05/06 00:45:53;;;;;;;;;;;14.80;83.10;;;;;;5051546;28;19932;-79
2022/05/06 00:48:22;;;;;;;;;;;14.80;83.20;;;;;;5051999;28;19947;-78
2022/05/06 00:50:49;;;;;;;;;;;14.80;83.20;;;;;;5049137;28;20015;-78
2022/05/06 00:53:16;;;;;;;;;;;14.80;83.30;;;;;;5054673;28;19928;-78
2022/05/06 00:55:43;;;;;;;;;;;14.80;83.30;;;;;;5052932;28;19951;-78
2022/05/06 00:58:10;;;;;;;;;;;14.70;83.30;;;;;;5049221;28;19928;-79
2022/05/06 01:00:36;;;;;;;;;;;14.70;83.30;;;;;;5049872;28;19925;-78
2022/05/06 01:03:03;;;;;;;;;;;14.70;83.40;;;;;;5056466;28;19929;-79
2022/05/06 01:05:32;;;;;;;;;;;14.70;83.40;;;;;;5053782;28;19982;-78
2022/05/06 01:07:59;;;;;;;;;;;14.70;83.50;;;;;;5054086;28;19932;-77
2022/05/06 01:10:26;;;;;;;;;;;14.70;83.50;;;;;;5060705;28;19924;-78
2022/05/06 01:12:52;;;;;;;;;;;14.70;83.60;;;;;;5061061;28;19925;-78
2022/05/06 01:15:19;;;;;;;;;;;14.70;83.60;;;;;;5056264;28;19940;-78
2022/05/06 01:17:46;;;;;;;;;;;14.60;83.60;;;;;;5057360;28;19933;-78
2022/05/06 01:20:15;;;;;;;;;;;14.60;83.70;;;;;;5059257;28;19929;-77
2022/05/06 01:22:44;;;;;;;;;;;14.60;83.70;;;;;;5060620;28;19973;-77
2022/05/06 01:25:11;;;;;;;;;;;14.60;83.80;;;;;;5053655;28;20296;-77
2022/05/06 01:27:39;;;;;;;;;;;14.60;83.80;;;;;;5055809;28;20674;-77
2022/05/06 01:30:08;;;;;;;;;;;14.60;83.80;;;;;;5058316;28;19936;-78
2022/05/06 01:32:35;;;;;;;;;;;14.60;83.90;;;;;;5058242;28;19935;-78
2022/05/06 01:35:03;;;;;;;;;;;14.60;83.90;;;;;;5057319;28;19940;-80
2022/05/06 01:37:30;;;;;;;;;;;14.60;84.70;;;;;;5056023;28;19932;-77
2022/05/06 01:40:00;;;;;;;;;;;14.60;84.00;;;;;;5054689;28;19925;-78
2022/05/06 01:42:28;;;;;;;;;;;14.60;84.10;;;;;;5062017;28;19929;-78
2022/05/06 01:44:56;;;;;;;;;;;14.50;84.00;;;;;;5054805;28;20414;-78
2022/05/06 01:47:25;;;;;;;;;;;14.50;84.00;;;;;;5057526;28;20301;-77
2022/05/06 01:49:53;;;;;;;;;;;14.50;84.10;;;;;;5056364;28;19932;-78
2022/05/06 01:52:21;;;;;;;;;;;14.50;84.20;;;;;;5058383;28;19936;-77
2022/05/06 01:54:48;;;;;;;;;;;14.50;84.20;;;;;;5063175;28;19932;-78
2022/05/06 01:57:16;;;;;;;;;;;14.50;84.20;;;;;;5054126;28;19929;-77
2022/05/06 01:59:42;;;;;;;;;;;14.50;84.30;;;;;;5054292;28;19924;-77
2022/05/06 02:02:09;;;;;;;;;;;14.50;84.30;;;;;;5054509;28;20363;-78
2022/05/06 02:07:20;;;;;;;;;;;14.40;84.40;;;;;;5058486;28;19936;-78
2022/05/06 02:09:46;;;;;;;;;;;14.40;84.40;;;;;;5055377;28;19932;-78
2022/05/06 02:12:13;;;;;;;;;;;14.40;84.40;;;;;;5053461;28;19936;-78
2022/05/06 02:14:41;;;;;;;;;;;14.40;84.40;;;;;;5057495;28;19929;-77
2022/05/06 02:17:07;;;;;;;;;;;14.40;84.50;;;;;;5056027;28;19928;-77
2022/05/06 02:19:34;;;;;;;;;;;14.40;84.50;;;;;;5053916;28;19928;-77
2022/05/06 02:22:01;;;;;;;;;;;14.40;84.60;;;;;;5052888;28;19936;-77
2022/05/06 02:24:28;;;;;;;;;;;14.40;85.40;;;;;;5053912;28;19928;-78
2022/05/06 02:26:54;;;;;;;;;;;14.40;84.70;;;;;;5051846;28;19956;-78
2022/05/06 02:29:21;;;;;;;;;;;14.30;84.70;;;;;;5057476;28;20327;-77
2022/05/06 02:34:33;;;;;;;;;;;14.30;84.70;;;;;;5052210;28;19939;-76
2022/05/06 02:36:59;;;;;;;;;;;14.30;84.80;;;;;;5057618;28;19932;-77
2022/05/06 02:39:26;;;;;;;;;;;14.30;84.80;;;;;;5053029;28;19940;-77
2022/05/06 02:41:53;;;;;;;;;;;14.30;84.90;;;;;;5054839;28;20396;-77
2022/05/06 02:44:19;;;;;;;;;;;14.30;84.90;;;;;;5052757;28;19933;-77
2022/05/06 02:46:46;;;;;;;;;;;14.30;84.90;;;;;;5049348;28;19935;-77
2022/05/06 02:49:14;;;;;;;;;;;14.30;85.00;;;;;;5056966;28;19940;-77
2022/05/06 02:51:40;;;;;;;;;;;14.30;85.00;;;;;;5057423;28;19932;-77
2022/05/06 02:54:07;;;;;;;;;;;14.20;85.00;;;;;;5060695;28;19925;-77
2022/05/06 02:56:34;;;;;;;;;;;14.20;85.00;;;;;;5058165;28;19929;-78
2022/05/06 02:59:00;;;;;;;;;;;14.20;85.10;;;;;;5052452;28;19935;-77
2022/05/06 03:01:28;;;;;;;;;;;14.20;85.00;;;;;;5061497;28;19929;-77
2022/05/06 03:03:54;;;;;;;;;;;14.20;85.10;;;;;;5061764;28;19932;-77
2022/05/06 03:06:22;;;;;;;;;;;14.20;85.20;;;;;;5057980;28;19929;-77
2022/05/06 03:08:49;;;;;;;;;;;14.20;85.20;;;;;;5059737;28;19935;-78
2022/05/06 03:11:15;;;;;;;;;;;14.20;85.30;;;;;;5055851;28;19929;-78
2022/05/06 03:13:42;;;;;;;;;;;14.20;85.30;;;;;;5057288;28;19924;-77
2022/05/06 03:16:08;;;;;;;;;;;14.20;85.40;;;;;;5051982;28;20374;-77
2022/05/06 03:18:35;;;;;;;;;;;14.20;85.40;;;;;;5051988;28;20404;-79
2022/05/06 03:21:02;;;;;;;;;;;14.10;85.30;;;;;;5054843;28;20466;-77
2022/05/06 03:23:30;;;;;;;;;;;14.20;85.40;;;;;;5053881;28;19925;-77
2022/05/06 03:25:56;;;;;;;;;;;14.10;85.40;;;;;;5052872;28;19933;-77
2022/05/06 03:28:23;;;;;;;;;;;14.10;85.50;;;;;;5058259;28;20691;-78
2022/05/06 03:30:49;;;;;;;;;;;14.10;85.50;;;;;;5050391;28;20710;-77
2022/05/06 03:33:17;;;;;;;;;;;14.10;85.50;;;;;;5050954;28;19933;-77
2022/05/06 03:35:43;;;;;;;;;;;14.10;85.60;;;;;;5058690;28;19925;-77
2022/05/06 03:38:10;;;;;;;;;;;14.00;85.50;;;;;;5052509;28;20493;-78
2022/05/06 03:40:38;;;;;;;;;;;14.00;85.60;;;;;;5056929;28;20795;-77
2022/05/06 03:43:04;;;;;;;;;;;14.00;85.70;;;;;;5051164;28;19939;-78
2022/05/06 03:45:31;;;;;;;;;;;14.00;85.70;;;;;;5057488;28;19936;-78
2022/05/06 03:47:58;;;;;;;;;;;14.00;85.80;;;;;;5053956;28;19939;-78
2022/05/06 03:53:09;;;;;;;;;;;14.00;85.80;;;;;;5054312;28;19990;-77
2022/05/06 03:55:35;;;;;;;;;;;14.00;85.80;;;;;;5055937;28;19928;-78
2022/05/06 03:58:03;;;;;;;;;;;14.00;85.80;;;;;;5055544;28;19935;-77
2022/05/06 04:00:30;;;;;;;;;;;14.00;85.90;;;;;;5055167;28;19928;-77
2022/05/06 04:02:56;;;;;;;;;;;13.90;85.90;;;;;;5056089;28;20285;-77
2022/05/06 04:05:23;;;;;;;;;;;13.90;85.90;;;;;;5056124;28;20308;-77
2022/05/06 04:07:49;;;;;;;;;;;14.00;86.00;;;;;;5056193;28;19929;-77
2022/05/06 04:10:16;;;;;;;;;;;13.90;86.00;;;;;;5054624;28;19939;-77
2022/05/06 04:12:43;;;;;;;;;;;13.90;86.00;;;;;;5051899;28;20335;-76
2022/05/06 04:15:11;;;;;;;;;;;13.90;86.00;;;;;;5053267;28;20614;-77
2022/05/06 04:17:38;;;;;;;;;;;13.90;86.10;;;;;;5055063;28;19933;-77
2022/05/06 04:25:33;;;;;;;;;;;13.90;86.20;;;;;;5051933;28;19951;-78
2022/05/06 04:28:00;;;;;;;;;;;13.80;86.10;;;;;;5056873;28;19939;-77
2022/05/06 04:30:28;;;;;;;;;;;13.80;86.20;;;;;;5056354;28;19935;-77
2022/05/06 04:32:54;;;;;;;;;;;13.70;86.10;;;;;;5057202;28;19929;-77
2022/05/06 04:35:21;;;;;;;;;;;13.80;86.20;;;;;;5052206;28;19932;-77
2022/05/06 04:37:47;;;;;;;;;;;13.70;86.20;;;;;;5059286;28;19936;-78
2022/05/06 04:40:14;;;;;;;;;;;13.70;86.20;;;;;;5053143;28;19932;-77
2022/05/06 04:42:40;;;;;;;;;;;13.70;86.30;;;;;;5060836;28;19929;-77
2022/05/06 04:45:07;;;;;;;;;;;13.70;86.30;;;;;;5055603;28;19937;-76
2022/05/06 04:47:37;;;;;;;;;;;13.70;86.30;;;;;;5055764;28;19928;-77
2022/05/06 04:50:04;;;;;;;;;;;13.70;86.40;;;;;;5058878;28;19934;-77
2022/05/06 04:52:31;;;;;;;;;;;13.70;86.40;;;;;;5056720;28;19936;-78
2022/05/06 04:54:57;;;;;;;;;;;13.60;86.40;;;;;;5061504;28;19932;-78
2022/05/06 04:57:24;;;;;;;;;;;13.60;86.40;;;;;;5053734;28;19928;-77
2022/05/06 04:59:51;;;;;;;;;;;13.60;86.50;;;;;;5060562;28;20547;-77
2022/05/06 05:02:17;;;;;;;;;;;13.60;86.50;;;;;;5053114;28;21930;-77
2022/05/06 05:04:46;;;;;;;;;;;13.60;86.60;;;;;;5054879;28;19960;-77
2022/05/06 05:07:13;;;;;;;;;;;13.60;86.60;;;;;;5056747;28;19929;-77
2022/05/06 05:09:39;;;;;;;;;;;13.60;86.60;;;;;;5058586;28;20458;-78
2022/05/06 05:12:07;;;;;;;;;;;13.60;86.70;;;;;;5061734;28;19936;-77
2022/05/06 05:14:34;;;;;;;;;;;13.60;86.70;;;;;;5058027;28;20044;-78
2022/05/06 05:17:01;;;;;;;;;;;13.60;86.70;;;;;;5058599;28;19928;-77
2022/05/06 05:19:27;;;;;;;;;;;13.50;86.70;;;;;;5064265;28;19940;-77
2022/05/06 05:21:55;;;;;;;;;;;13.50;87.50;;;;;;5059507;28;19942;-77
2022/05/06 05:24:22;;;;;;;;;;;13.50;86.80;;;;;;5053376;28;19936;-77
2022/05/06 05:26:48;;;;;;;;;;;13.50;86.80;;;;;;5060174;28;19937;-77
2022/05/06 05:29:15;;;;;;;;;;;13.50;86.90;;;;;;5057099;28;19928;-78
2022/05/06 05:31:43;;;;;;;;;;;13.50;86.90;;;;;;5058191;28;19933;-78
2022/05/06 05:34:09;;;;;;;;;;;13.50;86.90;;;;;;5057417;28;19928;-70
2022/05/06 05:36:36;;;;;;;;;;;13.50;87.00;;;;;;5057044;28;19936;-71
2022/05/06 05:39:04;;;;;;;;;;;13.50;87.00;;;;;;5059181;28;19935;-69
2022/05/06 05:41:31;;;;;;;;;;;13.50;87.00;;;;;;5053770;28;19937;-69
2022/05/06 05:49:32;;;;;;;;;;;13.40;87.00;;;;;;5055272;28;19947;-69
2022/05/06 05:51:58;;;;;;;;;;;13.50;87.10;;;;;;5061913;28;19972;-68
2022/05/06 05:54:26;;;;;;;;;;;13.50;87.20;;;;;;5053466;28;19928;-70
2022/05/06 05:56:54;;;;;;;;;;;13.50;87.40;;;;;;5052219;28;20452;-69
2022/05/06 05:59:20;;;;;;;;;;;13.40;87.10;;;;;;5056507;28;19980;-69
2022/05/06 06:01:47;;;;;;;;;;;13.40;87.10;;;;;;5056049;28;20599;-69
2022/05/06 06:04:13;;;;;;;;;;;13.40;87.10;;;;;;5054759;28;20289;-70
2022/05/06 06:06:41;;;;;;;;;;;13.40;87.10;;;;;;5049658;28;19932;-68
2022/05/06 06:09:08;;;;;;;;;;;13.40;87.10;;;;;;5051293;28;19943;-68
2022/05/06 06:11:36;;;;;;;;;;;13.40;87.20;;;;;;5054192;28;19943;-69
2022/05/06 06:14:02;;;;;;;;;;;13.50;87.20;;;;;;5056339;28;19960;-69
2022/05/06 06:16:29;;;;;;;;;;;13.40;87.20;;;;;;5056210;28;19936;-67
2022/05/06 06:18:58;;;;;;;;;;;13.40;87.20;;;;;;5062520;28;19936;-68
2022/05/06 06:21:24;;;;;;;;;;;13.40;87.20;;;;;;5058562;28;20590;-78
2022/05/06 06:23:51;;;;;;;;;;;13.40;87.50;;;;;;5052357;28;19931;-77
2022/05/06 06:26:18;;;;;;;;;;;13.50;87.10;;;;;;5053664;28;19937;-78
2022/05/06 06:28:45;;;;;;;;;;;13.50;87.10;;;;;;5052032;28;19925;-77
2022/05/06 06:31:12;;;;;;;;;;;13.40;87.00;;;;;;5053317;28;19929;-79
2022/05/06 06:33:39;;;;;;;;;;;13.40;87.40;;;;;;5058201;28;19932;-79
2022/05/06 06:36:05;;;;;;;;;;;13.40;86.90;;;;;;5054727;28;19928;-79
2022/05/06 06:38:32;;;;;;;;;;;13.50;87.00;;;;;;5057898;28;20357;-79
2022/05/06 06:40:59;;;;;;;;;;;13.40;86.90;;;;;;5054459;28;19933;-78
2022/05/06 06:43:26;;;;;;;;;;;13.50;87.10;;;;;;5054836;28;19956;-78
2022/05/06 06:45:56;;;;;;;;;;;13.40;86.80;;;;;;5050946;28;19937;-78
2022/05/06 06:48:23;;;;;;;;;;;13.40;86.80;;;;;;5052675;28;19924;-77
2022/05/06 06:50:49;;;;;;;;;;;13.50;86.70;;;;;;5059351;28;19947;-77
2022/05/06 06:53:16;;;;;;;;;;;13.50;86.60;;;;;;5059248;28;19928;-78
2022/05/06 06:55:42;;;;;;;;;;;13.50;86.60;;;;;;5059590;28;19929;-77
2022/05/06 06:58:09;;;;;;;;;;;13.50;86.50;;;;;;5059110;28;19928;-78
2022/05/06 07:00:35;;;;;;;;;;;13.50;86.30;;;;;;5062598;28;19928;-77
2022/05/06 07:03:03;;;;;;;;;;;13.50;86.30;;;;;;5048392;28;19924;-80
2022/05/06 07:05:30;;;;;;;;;;;13.50;86.10;;;;;;5057963;28;20629;-79
2022/05/06 07:13:25;;;;;;;;;;;13.50;85.80;;;;;;5056668;28;19931;-68
2022/05/06 07:15:52;;;;;;;;;;;13.60;85.70;;;;;;5056382;28;19936;-69
2022/05/06 07:18:20;;;;;;;;;;;13.50;85.50;;;;;;5051079;28;19929;-68
2022/05/06 07:20:47;;;;;;;;;;;13.60;85.50;;;;;;5053161;28;19936;-68
2022/05/06 07:23:14;;;;;;;;;;;13.60;86.10;;;;;;5052802;28;19929;-67
2022/05/06 07:25:41;;;;;;;;;;;13.60;85.30;;;;;;5052023;28;19932;-69
2022/05/06 07:28:08;;;;;;;;;;;13.60;85.20;;;;;;5050372;28;19943;-69
2022/05/06 07:30:35;;;;;;;;;;;13.60;85.20;;;;;;5049947;28;19929;-69
2022/05/06 07:33:01;;;;;;;;;;;13.60;85.10;;;;;;5056213;28;19960;-68
2022/05/06 07:35:30;;;;;;;;;;;13.60;85.00;;;;;;5057211;28;20430;-68
2022/05/06 07:37:56;;;;;;;;;;;13.60;84.90;;;;;;5052030;28;20026;-68
2022/05/06 07:40:23;;;;;;;;;;;13.90;85.00;;;;;;5054774;28;19929;-69
2022/05/06 07:42:50;;;;;;;;;;;13.70;84.80;;;;;;5050980;28;19935;-68
2022/05/06 07:45:17;;;;;;;;;;;13.60;84.70;;;;;;5050133;28;19935;-69
2022/05/06 07:47:43;;;;;;;;;;;13.70;85.40;;;;;;5052202;28;19976;-66
2022/05/06 07:50:10;;;;;;;;;;;13.70;84.60;;;;;;5055119;28;19935;-69
2022/05/06 07:52:38;;;;;;;;;;;13.70;84.50;;;;;;5052414;28;19928;-68
2022/05/06 07:55:06;;;;;;;;;;;13.70;84.50;;;;;;5047877;28;19968;-69
2022/05/06 07:57:32;;;;;;;;;;;13.70;84.50;;;;;;5047254;28;20759;-68
2022/05/06 07:59:59;;;;;;;;;;;13.70;84.30;;;;;;5048741;28;19932;-69
2022/05/06 08:05:11;;;;;;;;;;;13.80;84.30;;;;;;5059136;28;20430;-69
2022/05/06 08:07:39;;;;;;;;;;;13.80;84.20;;;;;;5054423;28;20019;-67
2022/05/06 08:10:06;;;;;;;;;;;13.80;84.20;;;;;;5054708;28;19932;-69
2022/05/06 08:12:33;;;;;;;;;;;13.80;84.10;;;;;;5057026;28;20384;-68
2022/05/06 08:14:59;;;;;;;;;;;13.80;84.00;;;;;;5054593;28;19935;-68
2022/05/06 08:17:26;;;;;;;;;;;13.90;84.80;;;;;;5054777;28;19937;-68
2022/05/06 08:19:52;;;;;;;;;;;13.80;83.90;;;;;;5058169;28;19944;-68
2022/05/06 08:22:19;;;;;;;;;;;13.80;83.80;;;;;;5052976;28;20665;-68
2022/05/06 08:24:47;;;;;;;;;;;13.90;83.70;;;;;;5056242;28;20572;-68
2022/05/06 08:27:14;;;;;;;;;;;13.90;83.60;;;;;;5053988;28;19935;-68
2022/05/06 08:29:41;;;;;;;;;;;13.90;83.60;;;;;;5059438;28;19939;-68
2022/05/06 08:32:08;;;;;;;;;;;14.00;83.60;;;;;;5050097;28;19951;-69
2022/05/06 08:34:35;;;;;;;;;;;14.00;83.60;;;;;;5052876;28;20316;-68
2022/05/06 08:37:03;;;;;;;;;;;14.00;83.40;;;;;;5054314;28;19928;-68
2022/05/06 08:39:29;;;;;;;;;;;14.00;83.30;;;;;;5061866;28;19939;-68
2022/05/06 08:41:58;;;;;;;;;;;14.10;83.20;;;;;;5055007;28;19936;-78
2022/05/06 08:52:43;;;;;;;;;;;14.20;82.80;;;;;;5026217;28;19978;-76
2022/05/06 08:55:09;;;;;;;;;;;14.20;82.60;;;;;;5050310;28;20011;-79
2022/05/06 08:57:39;;;;;;;;;;;14.20;82.30;;;;;;5053099;28;19929;-78
2022/05/06 09:00:06;;;;;;;;;;;14.30;82.20;;;;;;5054021;28;20039;-77
2022/05/06 09:02:32;;;;;;;;;;;14.30;82.00;;;;;;5051541;28;19929;-78
2022/05/06 09:04:59;;;;;;;;;;;14.30;81.80;;;;;;5057956;28;19936;-78
2022/05/06 09:07:25;;;;;;;;;;;14.40;82.40;;;;;;5053508;28;19933;-77
2022/05/06 09:10:10;;;;;;;;;;;14.40;81.70;;;;;;5054945;28;20015;-77
2022/05/06 09:12:44;;;;;;;;;;;14.50;81.60;;;;;;5058564;28;20435;-77
2022/05/06 09:17:56;;;;;;;;;;;14.50;81.50;;;;;;5051355;28;19932;-77
2022/05/06 09:20:23;;;;;;;;;;;14.60;81.60;;;;;;5061783;28;19929;-78
2022/05/06 09:22:51;;;;;;;;;;;14.60;81.90;;;;;;5065005;28;19939;-77
2022/05/06 09:25:33;;;;;;;;;;;14.60;81.40;;;;;;5065979;28;20027;-77
2022/05/06 09:28:00;;;;;;;;;;;14.70;81.30;;;;;;5061284;28;20660;-76
2022/05/06 09:30:27;;;;;;;;;;;14.70;81.20;;;;;;5055377;28;19924;-77
2022/05/06 09:32:54;;;;;;;;;;;14.70;81.40;;;;;;5065116;28;20443;-78
2022/05/06 09:35:20;;;;;;;;;;;14.80;81.50;;;;;;5066266;28;19929;-78
2022/05/06 09:37:47;;;;;;;;;;;14.80;81.50;;;;;;5062393;28;19935;-77
2022/05/06 09:40:15;;;;;;;;;;;14.80;81.50;;;;;;5061287;28;19921;-78
2022/05/06 09:42:42;;;;;;;;;;;14.90;81.40;;;;;;5063345;28;19936;-77
2022/05/06 09:45:11;;;;;;;;;;;14.90;81.10;;;;;;5054469;28;19933;-77
2022/05/06 09:47:38;;;;;;;;;;;15.00;80.90;;;;;;5055530;28;20427;-77
2022/05/06 09:50:06;;;;;;;;;;;15.00;80.80;;;;;;5052761;28;19929;-79
2022/05/06 09:52:33;;;;;;;;;;;15.00;80.80;;;;;;5058403;28;20023;-78
2022/05/06 09:55:01;;;;;;;;;;;15.00;80.80;;;;;;5055914;28;20307;-79
2022/05/06 09:57:27;;;;;;;;;;;15.10;81.10;;;;;;5055184;28;19994;-78
2022/05/06 09:59:54;;;;;;;;;;;15.10;80.30;;;;;;5056191;28;19929;-79
2022/05/06 10:02:22;;;;;;;;;;;15.20;79.80;;;;;;5053494;28;19936;-78
2022/05/06 10:04:49;;;;;;;;;;;15.20;79.10;;;;;;5058091;28;19936;-78
2022/05/06 10:07:16;;;;;;;;;;;15.30;78.90;;;;;;5053352;28;19932;-77
2022/05/06 10:09:50;;;;;;;;;;;15.30;78.80;;;;;;5054080;28;19928;-78
2022/05/06 10:12:18;;;;;;;;;;;15.30;78.10;;;;;;5055621;28;19932;-78
2022/05/06 10:14:45;;;;;;;;;;;15.30;77.70;;;;;;5051719;28;19940;-77
2022/05/06 10:17:12;;;;;;;;;;;15.50;77.70;;;;;;5052318;28;19940;-79
2022/05/06 10:19:49;;;;;;;;;;;15.50;77.20;;;;;;5058258;28;20309;-76
2022/05/06 10:22:15;;;;;;;;;;;15.50;77.00;;;;;;5054362;28;20016;-77
2022/05/06 10:24:43;;;;;;;;;;;15.60;77.00;;;;;;5057431;28;19928;-79
2022/05/06 10:27:23;;;;;;;;;;;15.70;76.70;;;;;;5059817;28;19935;-77
2022/05/06 10:32:58;;;;;;;;;;;15.80;76.20;;;;;;5052253;28;19932;-79
2022/05/06 10:35:38;;;;;;;;;;;15.80;75.70;;;;;;5048390;28;20392;-78
2022/05/06 10:38:24;;;;;;;;;;;15.90;75.30;;;;;;5054485;28;20616;-77
2022/05/06 10:40:54;;;;;;;;;;;15.90;74.60;;;;;;5051067;28;19928;-78
2022/05/06 10:43:49;;;;;;;;;;;16.00;74.00;;;;;;5054358;28;20502;-78
2022/05/06 10:46:30;;;;;;;;;;;16.00;73.30;;;;;;5054287;28;19928;-78
2022/05/06 10:48:56;;;;;;;;;;;16.10;72.90;;;;;;5056584;28;20519;-76
2022/05/06 10:51:24;;;;;;;;;;;16.20;72.00;;;;;;5058520;28;20299;-78
2022/05/06 10:53:54;;;;;;;;;;;16.20;71.80;;;;;;5060600;28;20132;-77
2022/05/06 10:56:20;;;;;;;;;;;16.20;70.80;;;;;;5054196;28;19933;-78
2022/05/06 10:58:47;;;;;;;;;;;16.30;70.70;;;;;;5054753;28;20695;-76
2022/05/06 11:01:15;;;;;;;;;;;16.30;70.40;;;;;;5054680;28;20308;-80
2022/05/06 11:03:51;;;;;;;;;;;16.40;70.10;;;;;;5054696;28;19937;-78
2022/05/06 11:06:20;;;;;;;;;;;16.40;69.70;;;;;;5055298;28;19929;-77
2022/05/06 11:08:48;;;;;;;;;;;16.50;69.20;;;;;;5055150;28;19963;-77
2022/05/06 11:11:15;;;;;;;;;;;16.50;68.70;;;;;;5052361;28;20014;-76
2022/05/06 11:13:44;;;;;;;;;;;16.60;69.10;;;;;;5054473;28;19928;-76
2022/05/06 11:16:14;;;;;;;;;;;16.60;67.90;;;;;;5050287;28;19929;-77
2022/05/06 11:18:44;;;;;;;;;;;16.60;67.50;;;;;;5050553;28;19976;-77
2022/05/06 11:21:21;;;;;;;;;;;16.70;66.90;;;;;;5058379;28;19929;-77
2022/05/06 11:23:49;;;;;;;;;;;16.70;66.70;;;;;;5056208;28;20016;-77
2022/05/06 11:26:23;;;;;;;;;;;16.80;66.40;;;;;;5057280;28;19928;-79
2022/05/06 11:29:00;;;;;;;;;;;16.80;66.60;;;;;;5056693;28;19932;-79
2022/05/06 11:31:28;;;;;;;;;;;16.90;66.30;;;;;;5050223;28;19932;-76
2022/05/06 11:33:57;;;;;;;;;;;16.90;65.90;;;;;;5053021;28;19968;-77
2022/05/06 11:36:23;;;;;;;;;;;16.90;65.90;;;;;;5052178;28;19929;-78
2022/05/06 11:38:51;;;;;;;;;;;17.00;65.70;;;;;;5051152;28;19936;-78
2022/05/06 11:41:18;;;;;;;;;;;17.00;65.50;;;;;;5059303;28;19928;-78
2022/05/06 11:43:45;;;;;;;;;;;17.10;64.70;;;;;;5050085;28;19963;-78
2022/05/06 11:48:59;;;;;;;;;;;17.20;64.80;;;;;;5054547;28;19931;-77
2022/05/06 11:51:27;;;;;;;;;;;17.30;64.40;;;;;;5051947;28;19933;-78
2022/05/06 11:53:55;;;;;;;;;;;17.30;64.40;;;;;;5058437;28;19928;-77
2022/05/06 11:56:22;;;;;;;;;;;17.40;64.40;;;;;;5052606;28;19963;-76
2022/05/06 11:58:49;;;;;;;;;;;17.40;64.40;;;;;;5052731;28;20396;-79
2022/05/06 12:01:24;;;;;;;;;;;17.50;64.10;;;;;;5048472;28;20560;-79
2022/05/06 12:03:51;;;;;;;;;;;17.50;63.60;;;;;;5055414;28;19924;-78
2022/05/06 12:06:25;;;;;;;;;;;17.60;63.30;;;;;;5055695;28;19928;-78
2022/05/06 12:08:52;;;;;;;;;;;17.60;62.20;;;;;;5051897;28;19924;-78
2022/05/06 12:11:25;;;;;;;;;;;17.70;62.50;;;;;;5056842;28;19981;-78
2022/05/06 12:13:51;;;;;;;;;;;17.70;62.70;;;;;;5054764;28;19935;-78
2022/05/06 12:16:18;;;;;;;;;;;17.80;62.50;;;;;;5050453;28;19932;-77
2022/05/06 12:18:54;;;;;;;;;;;17.90;62.40;;;;;;5045781;28;19932;-78
2022/05/06 12:21:24;;;;;;;;;;;17.90;62.00;;;;;;5052092;28;19928;-79
2022/05/06 12:23:53;;;;;;;;;;;18.00;61.90;;;;;;5047915;28;19936;-78
2022/05/06 12:26:35;;;;;;;;;;;18.00;61.60;;;;;;5051687;28;20032;-77
2022/05/06 12:29:04;;;;;;;;;;;18.10;61.20;;;;;;5051171;28;19928;-77
2022/05/06 12:31:31;;;;;;;;;;;18.10;61.00;;;;;;5049896;28;19932;-75
2022/05/06 12:34:01;;;;;;;;;;;18.20;61.10;;;;;;5052267;28;19933;-69
2022/05/06 12:36:28;;;;;;;;;;;18.20;61.10;;;;;;5049255;28;20439;-69
2022/05/06 12:38:54;;;;;;;;;;;18.30;61.00;;;;;;5055591;28;19932;-68
2022/05/06 12:41:22;;;;;;;;;;;18.30;60.70;;;;;;5055061;28;20346;-69
2022/05/06 12:43:50;;;;;;;;;;;18.40;60.40;;;;;;5055419;28;19932;-69
2022/05/06 12:46:27;;;;;;;;;;;18.50;60.00;;;;;;5055221;28;19929;-69
2022/05/06 12:51:38;;;;;;;;;;;18.50;59.80;;;;;;5053776;28;20478;-68
2022/05/06 12:54:05;;;;;;;;;;;18.60;59.50;;;;;;5052749;28;20641;-68
2022/05/06 12:56:31;;;;;;;;;;;18.60;59.50;;;;;;5054772;28;19929;-69
2022/05/06 12:58:59;;;;;;;;;;;18.70;59.40;;;;;;5053335;28;19932;-69
2022/05/06 13:01:26;;;;;;;;;;;18.80;59.30;;;;;;5058808;28;20587;-69
2022/05/06 13:03:52;;;;;;;;;;;18.80;59.50;;;;;;5061406;28;20376;-70
2022/05/06 13:06:19;;;;;;;;;;;18.80;59.20;;;;;;5063157;28;19932;-70
2022/05/06 13:08:45;;;;;;;;;;;18.90;59.20;;;;;;5058710;28;19939;-69
2022/05/06 13:11:12;;;;;;;;;;;18.90;59.00;;;;;;5061875;28;19928;-69
2022/05/06 13:13:38;;;;;;;;;;;19.00;58.40;;;;;;5060024;28;19937;-67
2022/05/06 13:16:06;;;;;;;;;;;19.00;57.70;;;;;;5057378;28;19929;-68
2022/05/06 13:18:33;;;;;;;;;;;19.00;57.70;;;;;;5058058;28;21267;-69
2022/05/06 13:20:59;;;;;;;;;;;19.00;58.00;;;;;;5060405;28;19928;-69
2022/05/06 13:23:26;;;;;;;;;;;19.00;58.30;;;;;;5059775;28;19928;-69
2022/05/06 13:25:53;;;;;;;;;;;19.10;57.90;;;;;;5061893;28;19929;-69
2022/05/06 13:28:19;;;;;;;;;;;19.10;58.40;;;;;;5054383;28;20374;-69
2022/05/06 13:30:46;;;;;;;;;;;19.20;58.10;;;;;;5061383;28;19956;-69
2022/05/06 13:33:14;;;;;;;;;;;19.20;57.90;;;;;;5054827;28;19928;-69
2022/05/06 13:35:40;;;;;;;;;;;19.20;58.20;;;;;;5058654;28;19925;-69
2022/05/06 13:38:07;;;;;;;;;;;19.30;57.10;;;;;;5053136;28;20691;-67
2022/05/06 13:40:33;;;;;;;;;;;19.30;57.40;;;;;;5055947;28;20396;-68
2022/05/06 13:43:00;;;;;;;;;;;19.30;57.50;;;;;;5058617;28;19937;-69
2022/05/06 13:45:27;;;;;;;;;;;19.30;56.90;;;;;;5054395;28;19928;-68
2022/05/06 13:47:53;;;;;;;;;;;19.40;57.20;;;;;;5058579;28;20335;-68
2022/05/06 13:50:21;;;;;;;;;;;19.40;57.10;;;;;;5052164;28;20300;-69
2022/05/06 13:52:48;;;;;;;;;;;19.50;57.70;;;;;;5059679;28;19936;-68
2022/05/06 13:55:15;;;;;;;;;;;19.50;58.10;;;;;;5059281;28;19932;-68
2022/05/06 14:00:25;;;;;;;;;;;19.60;56.90;;;;;;5057728;28;19997;-68
2022/05/06 14:02:52;;;;;;;;;;;19.70;55.40;;;;;;5057232;28;19936;-69
2022/05/06 14:05:19;;;;;;;;;;;19.70;55.40;;;;;;5053552;28;19990;-77
2022/05/06 14:07:47;;;;;;;;;;;19.70;55.50;;;;;;5058042;28;19928;-78
2022/05/06 14:10:13;;;;;;;;;;;19.80;55.90;;;;;;5061314;28;19925;-73
2022/05/06 14:12:40;;;;;;;;;;;19.80;56.00;;;;;;5052699;28;19931;-77
2022/05/06 14:15:07;;;;;;;;;;;19.90;56.00;;;;;;5061424;28;19924;-74
2022/05/06 14:17:34;;;;;;;;;;;19.90;55.50;;;;;;5054101;28;20942;-73
2022/05/06 14:20:00;;;;;;;;;;;20.00;55.40;;;;;;5054519;28;20231;-77
2022/05/06 14:22:27;;;;;;;;;;;20.00;54.90;;;;;;5054490;28;19932;-74
2022/05/06 14:24:55;;;;;;;;;;;20.00;54.60;;;;;;5051023;28;20023;-75
2022/05/06 14:27:22;;;;;;;;;;;20.10;54.80;;;;;;5058883;28;19935;-75
2022/05/06 14:29:49;;;;;;;;;;;20.20;54.50;;;;;;5060163;28;19967;-75
2022/05/06 14:32:15;;;;;;;;;;;20.20;54.50;;;;;;5052936;28;19951;-74
2022/05/06 14:34:42;;;;;;;;;;;20.30;54.40;;;;;;5055324;28;20019;-76
2022/05/06 14:37:09;;;;;;;;;;;20.40;53.90;;;;;;5054725;28;20059;-75
2022/05/06 14:39:37;;;;;;;;;;;20.40;53.20;;;;;;5056090;28;19928;-75
2022/05/06 14:42:05;;;;;;;;;;;20.50;52.90;;;;;;5057438;28;19974;-75
2022/05/06 14:44:31;;;;;;;;;;;20.50;52.60;;;;;;5056949;28;19935;-76
2022/05/06 14:46:59;;;;;;;;;;;20.60;53.70;;;;;;5058681;28;19940;-75
2022/05/06 14:49:26;;;;;;;;;;;20.60;53.50;;;;;;5054714;28;19951;-75
2022/05/06 14:51:52;;;;;;;;;;;20.70;53.10;;;;;;5055454;28;20616;-75
2022/05/06 14:54:19;;;;;;;;;;;20.70;53.00;;;;;;5051610;28;20450;-75
2022/05/06 14:56:46;;;;;;;;;;;20.70;52.60;;;;;;5055058;28;19932;-76
2022/05/06 14:59:13;;;;;;;;;;;20.80;53.00;;;;;;5052528;28;19939;-75
2022/05/06 15:01:42;;;;;;;;;;;20.80;53.00;;;;;;5054819;28;19936;-74
2022/05/06 15:04:08;;;;;;;;;;;20.80;53.00;;;;;;5053049;28;19939;-75
2022/05/06 15:06:35;;;;;;;;;;;20.90;53.10;;;;;;5054456;28;19948;-74
2022/05/06 15:09:01;;;;;;;;;;;20.90;52.60;;;;;;5050828;28;19937;-74